sensor_id;sensor_type;location;lat;lon;timestamp;P1;durP1;ratioP1;P2;durP2;ratioP2
46407;SDS011;32110;45.724;21.276;2023-10-19T00:00:25;20.52;;;11.05;;
46407;SDS011;32110;45.724;21.276;2023-10-19T00:02:51;18.20;;;10.63;;
46407;SDS011;32110;45.724;21.276;2023-10-19T00:05:16;18.05;;;10.63;;
46407;SDS011;32110;45.724;21.276;2023-10-19T00:07:42;17.58;;;10.50;;
46407;SDS011;32110;45.724;21.276;2023-10-19T00:10:07;18.83;;;10.15;;
46407;SDS011;32110;45.724;21.276;2023-10-19T00:12:32;19.85;;;10.48;;
46407;SDS011;32110;45.724;21.276;2023-10-19T00:14:58;18.00;;;10.27;;
46407;SDS011;32110;45.724;21.276;2023-10-19T00:17:24;18.40;;;10.10;;
46407;SDS011;32110;45.724;21.276;2023-10-19T00:19:52;18.13;;;9.88;;
46407;SDS011;32110;45.724;21.276;2023-10-19T00:22:31;19.05;;;10.40;;
46407;SDS011;32110;45.724;21.276;2023-10-19T00:25:04;21.75;;;10.50;;
46407;SDS011;32110;45.724;21.276;2023-10-19T00:27:29;14.52;;;8.60;;
46407;SDS011;32110;45.724;21.276;2023-10-19T00:29:56;19.33;;;9.35;;
46407;SDS011;32110;45.724;21.276;2023-10-19T00:32:31;15.80;;;9.05;;
46407;SDS011;32110;45.724;21.276;2023-10-19T00:34:56;16.98;;;8.25;;
46407;SDS011;32110;45.724;21.276;2023-10-19T00:37:21;17.50;;;8.67;;
46407;SDS011;32110;45.724;21.276;2023-10-19T00:39:52;17.73;;;8.75;;
46407;SDS011;32110;45.724;21.276;2023-10-19T00:42:20;16.05;;;8.65;;
46407;SDS011;32110;45.724;21.276;2023-10-19T00:44:56;17.35;;;9.07;;
46407;SDS011;32110;45.724;21.276;2023-10-19T00:47:29;17.08;;;9.10;;
46407;SDS011;32110;45.724;21.276;2023-10-19T00:50:05;17.30;;;9.07;;
46407;SDS011;32110;45.724;21.276;2023-10-19T00:52:31;18.55;;;8.73;;
46407;SDS011;32110;45.724;21.276;2023-10-19T00:54:57;14.02;;;8.40;;
46407;SDS011;32110;45.724;21.276;2023-10-19T00:57:23;18.85;;;8.60;;
46407;SDS011;32110;45.724;21.276;2023-10-19T00:59:59;16.00;;;8.68;;
46407;SDS011;32110;45.724;21.276;2023-10-19T01:02:37;15.73;;;8.15;;
46407;SDS011;32110;45.724;21.276;2023-10-19T01:05:08;16.08;;;8.27;;
46407;SDS011;32110;45.724;21.276;2023-10-19T01:07:34;14.73;;;8.13;;
46407;SDS011;32110;45.724;21.276;2023-10-19T01:10:03;14.00;;;8.38;;
46407;SDS011;32110;45.724;21.276;2023-10-19T01:12:44;13.10;;;7.82;;
46407;SDS011;32110;45.724;21.276;2023-10-19T01:15:10;14.23;;;8.27;;
46407;SDS011;32110;45.724;21.276;2023-10-19T01:20:08;12.77;;;7.27;;
46407;SDS011;32110;45.724;21.276;2023-10-19T01:22:53;15.25;;;7.68;;
46407;SDS011;32110;45.724;21.276;2023-10-19T01:25:21;15.02;;;8.02;;
46407;SDS011;32110;45.724;21.276;2023-10-19T01:27:59;13.68;;;8.13;;
46407;SDS011;32110;45.724;21.276;2023-10-19T01:30:26;15.35;;;7.75;;
46407;SDS011;32110;45.724;21.276;2023-10-19T01:32:52;13.45;;;7.00;;
46407;SDS011;32110;45.724;21.276;2023-10-19T01:35:17;16.13;;;7.72;;
46407;SDS011;32110;45.724;21.276;2023-10-19T01:37:43;14.10;;;7.32;;
46407;SDS011;32110;45.724;21.276;2023-10-19T01:40:08;14.90;;;7.97;;
46407;SDS011;32110;45.724;21.276;2023-10-19T01:42:33;13.00;;;7.82;;
46407;SDS011;32110;45.724;21.276;2023-10-19T01:44:59;15.88;;;8.13;;
46407;SDS011;32110;45.724;21.276;2023-10-19T01:47:24;18.43;;;8.20;;
46407;SDS011;32110;45.724;21.276;2023-10-19T01:49:50;14.35;;;7.78;;
46407;SDS011;32110;45.724;21.276;2023-10-19T01:52:17;14.32;;;7.47;;
46407;SDS011;32110;45.724;21.276;2023-10-19T01:54:42;20.05;;;8.90;;
46407;SDS011;32110;45.724;21.276;2023-10-19T01:57:08;15.60;;;8.30;;
46407;SDS011;32110;45.724;21.276;2023-10-19T01:59:33;14.87;;;7.77;;
46407;SDS011;32110;45.724;21.276;2023-10-19T02:01:59;13.18;;;8.10;;
46407;SDS011;32110;45.724;21.276;2023-10-19T02:04:24;13.95;;;7.72;;
46407;SDS011;32110;45.724;21.276;2023-10-19T02:06:50;14.18;;;7.75;;
46407;SDS011;32110;45.724;21.276;2023-10-19T02:09:19;13.88;;;7.50;;
46407;SDS011;32110;45.724;21.276;2023-10-19T02:11:53;17.58;;;7.93;;
46407;SDS011;32110;45.724;21.276;2023-10-19T02:14:22;13.25;;;7.18;;
46407;SDS011;32110;45.724;21.276;2023-10-19T02:16:50;14.95;;;7.38;;
46407;SDS011;32110;45.724;21.276;2023-10-19T02:19:21;18.58;;;7.40;;
46407;SDS011;32110;45.724;21.276;2023-10-19T02:21:51;14.93;;;7.20;;
46407;SDS011;32110;45.724;21.276;2023-10-19T02:24:17;12.30;;;7.10;;
46407;SDS011;32110;45.724;21.276;2023-10-19T02:26:43;13.20;;;7.13;;
46407;SDS011;32110;45.724;21.276;2023-10-19T02:29:08;12.65;;;7.30;;
46407;SDS011;32110;45.724;21.276;2023-10-19T02:31:38;14.27;;;7.25;;
46407;SDS011;32110;45.724;21.276;2023-10-19T02:34:06;13.45;;;6.75;;
46407;SDS011;32110;45.724;21.276;2023-10-19T02:36:32;12.60;;;7.30;;
46407;SDS011;32110;45.724;21.276;2023-10-19T02:38:59;12.20;;;6.88;;
46407;SDS011;32110;45.724;21.276;2023-10-19T02:41:25;14.35;;;7.10;;
46407;SDS011;32110;45.724;21.276;2023-10-19T02:43:52;12.65;;;7.28;;
46407;SDS011;32110;45.724;21.276;2023-10-19T02:46:27;12.38;;;6.50;;
46407;SDS011;32110;45.724;21.276;2023-10-19T02:48:52;12.43;;;6.82;;
46407;SDS011;32110;45.724;21.276;2023-10-19T02:51:17;13.87;;;6.63;;
46407;SDS011;32110;45.724;21.276;2023-10-19T02:53:44;13.45;;;7.22;;
46407;SDS011;32110;45.724;21.276;2023-10-19T02:56:13;12.52;;;6.35;;
46407;SDS011;32110;45.724;21.276;2023-10-19T02:58:43;12.00;;;6.65;;
46407;SDS011;32110;45.724;21.276;2023-10-19T03:01:17;14.15;;;6.82;;
46407;SDS011;32110;45.724;21.276;2023-10-19T03:03:46;12.10;;;6.95;;
46407;SDS011;32110;45.724;21.276;2023-10-19T03:06:12;17.52;;;7.30;;
46407;SDS011;32110;45.724;21.276;2023-10-19T03:08:37;11.73;;;6.55;;
46407;SDS011;32110;45.724;21.276;2023-10-19T03:11:02;14.57;;;7.20;;
46407;SDS011;32110;45.724;21.276;2023-10-19T03:13:30;11.15;;;6.60;;
46407;SDS011;32110;45.724;21.276;2023-10-19T03:15:58;13.57;;;6.47;;
46407;SDS011;32110;45.724;21.276;2023-10-19T03:18:25;11.82;;;7.07;;
46407;SDS011;32110;45.724;21.276;2023-10-19T03:20:51;11.75;;;6.72;;
46407;SDS011;32110;45.724;21.276;2023-10-19T03:23:16;14.25;;;7.03;;
46407;SDS011;32110;45.724;21.276;2023-10-19T03:25:42;11.18;;;6.32;;
46407;SDS011;32110;45.724;21.276;2023-10-19T03:28:22;13.32;;;6.60;;
46407;SDS011;32110;45.724;21.276;2023-10-19T03:30:51;13.98;;;7.40;;
46407;SDS011;32110;45.724;21.276;2023-10-19T03:33:16;15.77;;;7.00;;
46407;SDS011;32110;45.724;21.276;2023-10-19T03:35:43;14.45;;;6.82;;
46407;SDS011;32110;45.724;21.276;2023-10-19T03:38:08;11.75;;;6.68;;
46407;SDS011;32110;45.724;21.276;2023-10-19T03:40:41;15.68;;;6.82;;
46407;SDS011;32110;45.724;21.276;2023-10-19T03:43:10;13.10;;;7.40;;
46407;SDS011;32110;45.724;21.276;2023-10-19T03:45:43;12.88;;;7.07;;
46407;SDS011;32110;45.724;21.276;2023-10-19T03:48:14;13.25;;;6.63;;
46407;SDS011;32110;45.724;21.276;2023-10-19T03:50:41;14.30;;;7.00;;
46407;SDS011;32110;45.724;21.276;2023-10-19T03:53:07;15.65;;;7.53;;
46407;SDS011;32110;45.724;21.276;2023-10-19T03:55:37;12.73;;;6.93;;
46407;SDS011;32110;45.724;21.276;2023-10-19T03:58:03;15.02;;;7.20;;
46407;SDS011;32110;45.724;21.276;2023-10-19T04:00:29;15.02;;;7.93;;
46407;SDS011;32110;45.724;21.276;2023-10-19T04:02:58;16.00;;;7.47;;
46407;SDS011;32110;45.724;21.276;2023-10-19T04:05:23;17.73;;;7.78;;
46407;SDS011;32110;45.724;21.276;2023-10-19T04:07:50;14.57;;;7.03;;
46407;SDS011;32110;45.724;21.276;2023-10-19T04:10:19;12.20;;;7.28;;
46407;SDS011;32110;45.724;21.276;2023-10-19T04:12:59;12.75;;;7.18;;
46407;SDS011;32110;45.724;21.276;2023-10-19T04:15:25;15.70;;;7.53;;
46407;SDS011;32110;45.724;21.276;2023-10-19T04:17:51;13.50;;;6.75;;
46407;SDS011;32110;45.724;21.276;2023-10-19T04:20:18;11.63;;;7.13;;
46407;SDS011;32110;45.724;21.276;2023-10-19T04:22:44;13.25;;;7.55;;
46407;SDS011;32110;45.724;21.276;2023-10-19T04:25:09;15.55;;;7.35;;
46407;SDS011;32110;45.724;21.276;2023-10-19T04:27:37;12.93;;;7.15;;
46407;SDS011;32110;45.724;21.276;2023-10-19T04:30:03;20.38;;;7.35;;
46407;SDS011;32110;45.724;21.276;2023-10-19T04:32:28;18.00;;;7.32;;
46407;SDS011;32110;45.724;21.276;2023-10-19T04:34:53;23.47;;;7.70;;
46407;SDS011;32110;45.724;21.276;2023-10-19T04:37:19;23.75;;;7.43;;
46407;SDS011;32110;45.724;21.276;2023-10-19T04:39:45;25.42;;;7.82;;
46407;SDS011;32110;45.724;21.276;2023-10-19T04:42:10;23.67;;;7.32;;
46407;SDS011;32110;45.724;21.276;2023-10-19T04:44:35;21.23;;;8.57;;
46407;SDS011;32110;45.724;21.276;2023-10-19T04:47:01;16.13;;;6.80;;
46407;SDS011;32110;45.724;21.276;2023-10-19T04:49:26;18.25;;;7.53;;
46407;SDS011;32110;45.724;21.276;2023-10-19T04:51:51;23.53;;;7.93;;
46407;SDS011;32110;45.724;21.276;2023-10-19T04:54:16;16.97;;;7.00;;
46407;SDS011;32110;45.724;21.276;2023-10-19T04:56:42;13.10;;;7.07;;
46407;SDS011;32110;45.724;21.276;2023-10-19T04:59:07;16.55;;;7.72;;
46407;SDS011;32110;45.724;21.276;2023-10-19T05:01:33;15.30;;;7.50;;
46407;SDS011;32110;45.724;21.276;2023-10-19T05:03:59;14.50;;;8.00;;
46407;SDS011;32110;45.724;21.276;2023-10-19T05:06:24;15.52;;;7.78;;
46407;SDS011;32110;45.724;21.276;2023-10-19T05:08:52;13.63;;;7.13;;
46407;SDS011;32110;45.724;21.276;2023-10-19T05:11:18;14.80;;;7.32;;
46407;SDS011;32110;45.724;21.276;2023-10-19T05:13:43;13.13;;;7.67;;
46407;SDS011;32110;45.724;21.276;2023-10-19T05:16:08;16.73;;;7.23;;
46407;SDS011;32110;45.724;21.276;2023-10-19T05:18:34;13.50;;;7.72;;
46407;SDS011;32110;45.724;21.276;2023-10-19T05:20:59;13.43;;;7.93;;
46407;SDS011;32110;45.724;21.276;2023-10-19T05:23:26;17.20;;;8.18;;
46407;SDS011;32110;45.724;21.276;2023-10-19T05:26:00;13.60;;;7.43;;
46407;SDS011;32110;45.724;21.276;2023-10-19T05:28:25;20.17;;;7.80;;
46407;SDS011;32110;45.724;21.276;2023-10-19T05:30:51;13.68;;;7.72;;
46407;SDS011;32110;45.724;21.276;2023-10-19T05:33:16;16.13;;;8.63;;
46407;SDS011;32110;45.724;21.276;2023-10-19T05:35:45;18.42;;;8.80;;
46407;SDS011;32110;45.724;21.276;2023-10-19T05:38:10;15.73;;;7.72;;
46407;SDS011;32110;45.724;21.276;2023-10-19T05:40:36;20.90;;;9.30;;
46407;SDS011;32110;45.724;21.276;2023-10-19T05:43:01;35.77;;;17.63;;
46407;SDS011;32110;45.724;21.276;2023-10-19T05:45:27;29.13;;;17.40;;
46407;SDS011;32110;45.724;21.276;2023-10-19T05:47:53;21.60;;;10.85;;
46407;SDS011;32110;45.724;21.276;2023-10-19T05:50:18;19.27;;;10.30;;
46407;SDS011;32110;45.724;21.276;2023-10-19T05:52:44;14.88;;;9.10;;
46407;SDS011;32110;45.724;21.276;2023-10-19T05:55:09;18.10;;;9.93;;
46407;SDS011;32110;45.724;21.276;2023-10-19T05:57:36;18.13;;;9.73;;
46407;SDS011;32110;45.724;21.276;2023-10-19T06:00:05;21.88;;;10.10;;
46407;SDS011;32110;45.724;21.276;2023-10-19T06:02:31;20.15;;;9.52;;
46407;SDS011;32110;45.724;21.276;2023-10-19T06:04:57;19.08;;;9.48;;
46407;SDS011;32110;45.724;21.276;2023-10-19T06:07:22;18.77;;;9.40;;
46407;SDS011;32110;45.724;21.276;2023-10-19T06:09:49;17.63;;;8.98;;
46407;SDS011;32110;45.724;21.276;2023-10-19T06:12:15;13.13;;;8.53;;
46407;SDS011;32110;45.724;21.276;2023-10-19T06:14:40;14.77;;;9.07;;
46407;SDS011;32110;45.724;21.276;2023-10-19T06:17:05;16.43;;;8.67;;
46407;SDS011;32110;45.724;21.276;2023-10-19T06:19:31;16.38;;;8.27;;
46407;SDS011;32110;45.724;21.276;2023-10-19T06:21:56;15.40;;;8.23;;
46407;SDS011;32110;45.724;21.276;2023-10-19T06:24:21;12.52;;;8.18;;
46407;SDS011;32110;45.724;21.276;2023-10-19T06:26:46;13.60;;;8.60;;
46407;SDS011;32110;45.724;21.276;2023-10-19T06:29:12;19.90;;;9.20;;
46407;SDS011;32110;45.724;21.276;2023-10-19T06:31:37;19.43;;;8.47;;
46407;SDS011;32110;45.724;21.276;2023-10-19T06:34:02;16.00;;;8.80;;
46407;SDS011;32110;45.724;21.276;2023-10-19T06:36:28;16.23;;;8.20;;
46407;SDS011;32110;45.724;21.276;2023-10-19T06:38:54;14.40;;;7.88;;
46407;SDS011;32110;45.724;21.276;2023-10-19T06:41:19;13.38;;;8.20;;
46407;SDS011;32110;45.724;21.276;2023-10-19T06:43:45;10.70;;;6.93;;
46407;SDS011;32110;45.724;21.276;2023-10-19T06:46:11;13.25;;;6.97;;
46407;SDS011;32110;45.724;21.276;2023-10-19T06:48:37;11.98;;;6.82;;
46407;SDS011;32110;45.724;21.276;2023-10-19T06:51:02;13.02;;;6.78;;
46407;SDS011;32110;45.724;21.276;2023-10-19T06:53:27;10.07;;;6.68;;
46407;SDS011;32110;45.724;21.276;2023-10-19T06:55:53;15.60;;;7.97;;
46407;SDS011;32110;45.724;21.276;2023-10-19T06:58:19;16.48;;;9.80;;
46407;SDS011;32110;45.724;21.276;2023-10-19T07:00:45;11.77;;;7.93;;
46407;SDS011;32110;45.724;21.276;2023-10-19T07:03:10;13.68;;;7.70;;
46407;SDS011;32110;45.724;21.276;2023-10-19T07:05:36;11.93;;;7.28;;
46407;SDS011;32110;45.724;21.276;2023-10-19T07:08:01;11.07;;;7.18;;
46407;SDS011;32110;45.724;21.276;2023-10-19T07:10:28;12.10;;;7.53;;
46407;SDS011;32110;45.724;21.276;2023-10-19T07:12:54;11.75;;;7.50;;
46407;SDS011;32110;45.724;21.276;2023-10-19T07:15:20;14.20;;;7.82;;
46407;SDS011;32110;45.724;21.276;2023-10-19T07:17:47;11.95;;;7.78;;
46407;SDS011;32110;45.724;21.276;2023-10-19T07:20:14;14.90;;;7.72;;
46407;SDS011;32110;45.724;21.276;2023-10-19T07:23:09;13.70;;;7.38;;
46407;SDS011;32110;45.724;21.276;2023-10-19T07:25:45;12.93;;;8.23;;
46407;SDS011;32110;45.724;21.276;2023-10-19T07:28:11;13.70;;;7.72;;
46407;SDS011;32110;45.724;21.276;2023-10-19T07:30:37;13.00;;;7.72;;
46407;SDS011;32110;45.724;21.276;2023-10-19T07:33:03;13.93;;;7.95;;
46407;SDS011;32110;45.724;21.276;2023-10-19T07:35:29;15.10;;;7.90;;
46407;SDS011;32110;45.724;21.276;2023-10-19T07:37:59;19.08;;;8.88;;
46407;SDS011;32110;45.724;21.276;2023-10-19T07:40:24;12.63;;;7.90;;
46407;SDS011;32110;45.724;21.276;2023-10-19T07:42:49;14.57;;;8.00;;
46407;SDS011;32110;45.724;21.276;2023-10-19T07:45:17;11.32;;;7.88;;
46407;SDS011;32110;45.724;21.276;2023-10-19T07:47:42;12.70;;;7.88;;
46407;SDS011;32110;45.724;21.276;2023-10-19T07:50:08;12.15;;;7.30;;
46407;SDS011;32110;45.724;21.276;2023-10-19T07:52:47;12.85;;;7.18;;
46407;SDS011;32110;45.724;21.276;2023-10-19T07:55:13;12.80;;;7.25;;
46407;SDS011;32110;45.724;21.276;2023-10-19T07:57:39;15.52;;;8.45;;
46407;SDS011;32110;45.724;21.276;2023-10-19T08:00:06;12.77;;;8.20;;
46407;SDS011;32110;45.724;21.276;2023-10-19T08:02:33;14.45;;;8.63;;
46407;SDS011;32110;45.724;21.276;2023-10-19T08:04:59;17.92;;;8.63;;
46407;SDS011;32110;45.724;21.276;2023-10-19T08:07:24;12.90;;;7.78;;
46407;SDS011;32110;45.724;21.276;2023-10-19T08:09:51;12.60;;;8.23;;
46407;SDS011;32110;45.724;21.276;2023-10-19T08:12:16;13.95;;;7.82;;
46407;SDS011;32110;45.724;21.276;2023-10-19T08:14:42;12.90;;;7.30;;
46407;SDS011;32110;45.724;21.276;2023-10-19T08:17:07;10.40;;;7.15;;
46407;SDS011;32110;45.724;21.276;2023-10-19T08:19:34;11.95;;;7.35;;
46407;SDS011;32110;45.724;21.276;2023-10-19T08:21:59;11.63;;;7.47;;
46407;SDS011;32110;45.724;21.276;2023-10-19T08:24:24;10.75;;;6.95;;
46407;SDS011;32110;45.724;21.276;2023-10-19T08:26:49;14.70;;;7.37;;
46407;SDS011;32110;45.724;21.276;2023-10-19T08:29:16;9.48;;;6.22;;
46407;SDS011;32110;45.724;21.276;2023-10-19T08:31:42;12.23;;;6.13;;
46407;SDS011;32110;45.724;21.276;2023-10-19T08:34:09;13.18;;;6.15;;
46407;SDS011;32110;45.724;21.276;2023-10-19T08:36:36;9.93;;;6.80;;
46407;SDS011;32110;45.724;21.276;2023-10-19T08:39:02;11.35;;;6.13;;
46407;SDS011;32110;45.724;21.276;2023-10-19T08:41:31;12.13;;;6.28;;
46407;SDS011;32110;45.724;21.276;2023-10-19T08:43:56;10.65;;;6.25;;
46407;SDS011;32110;45.724;21.276;2023-10-19T08:46:22;10.52;;;6.15;;
46407;SDS011;32110;45.724;21.276;2023-10-19T08:48:50;9.40;;;6.10;;
46407;SDS011;32110;45.724;21.276;2023-10-19T08:51:15;9.15;;;5.35;;
46407;SDS011;32110;45.724;21.276;2023-10-19T08:53:41;10.18;;;5.35;;
46407;SDS011;32110;45.724;21.276;2023-10-19T08:56:09;9.00;;;5.30;;
46407;SDS011;32110;45.724;21.276;2023-10-19T08:58:35;7.88;;;5.15;;
46407;SDS011;32110;45.724;21.276;2023-10-19T09:01:00;6.90;;;4.57;;
46407;SDS011;32110;45.724;21.276;2023-10-19T09:03:31;11.63;;;4.50;;
46407;SDS011;32110;45.724;21.276;2023-10-19T09:05:57;6.80;;;4.72;;
46407;SDS011;32110;45.724;21.276;2023-10-19T09:08:22;7.68;;;3.90;;
46407;SDS011;32110;45.724;21.276;2023-10-19T09:10:48;5.83;;;3.80;;
46407;SDS011;32110;45.724;21.276;2023-10-19T09:13:14;8.05;;;3.63;;
46407;SDS011;32110;45.724;21.276;2023-10-19T09:15:43;5.32;;;3.60;;
46407;SDS011;32110;45.724;21.276;2023-10-19T09:18:12;4.80;;;3.37;;
46407;SDS011;32110;45.724;21.276;2023-10-19T09:20:39;7.35;;;4.00;;
46407;SDS011;32110;45.724;21.276;2023-10-19T09:23:06;5.95;;;3.40;;
46407;SDS011;32110;45.724;21.276;2023-10-19T09:25:32;5.47;;;3.25;;
46407;SDS011;32110;45.724;21.276;2023-10-19T09:27:57;4.55;;;3.38;;
46407;SDS011;32110;45.724;21.276;2023-10-19T09:30:23;4.50;;;3.27;;
46407;SDS011;32110;45.724;21.276;2023-10-19T09:32:49;6.05;;;3.70;;
46407;SDS011;32110;45.724;21.276;2023-10-19T09:35:15;6.13;;;3.45;;
46407;SDS011;32110;45.724;21.276;2023-10-19T09:37:44;5.88;;;3.28;;
46407;SDS011;32110;45.724;21.276;2023-10-19T09:40:10;6.22;;;3.38;;
46407;SDS011;32110;45.724;21.276;2023-10-19T09:42:39;4.38;;;3.13;;
46407;SDS011;32110;45.724;21.276;2023-10-19T09:45:10;4.00;;;2.92;;
46407;SDS011;32110;45.724;21.276;2023-10-19T09:47:38;5.07;;;3.00;;
46407;SDS011;32110;45.724;21.276;2023-10-19T09:50:04;3.63;;;3.00;;
46407;SDS011;32110;45.724;21.276;2023-10-19T09:52:32;5.50;;;3.10;;
46407;SDS011;32110;45.724;21.276;2023-10-19T09:54:59;9.55;;;3.38;;
46407;SDS011;32110;45.724;21.276;2023-10-19T09:57:34;4.57;;;3.00;;
46407;SDS011;32110;45.724;21.276;2023-10-19T10:00:00;4.88;;;3.10;;
46407;SDS011;32110;45.724;21.276;2023-10-19T10:02:33;4.78;;;3.03;;
46407;SDS011;32110;45.724;21.276;2023-10-19T10:04:58;7.30;;;2.78;;
46407;SDS011;32110;45.724;21.276;2023-10-19T10:07:24;5.32;;;2.90;;
46407;SDS011;32110;45.724;21.276;2023-10-19T10:09:50;6.65;;;3.08;;
46407;SDS011;32110;45.724;21.276;2023-10-19T10:12:19;5.85;;;2.90;;
46407;SDS011;32110;45.724;21.276;2023-10-19T10:15:19;4.72;;;2.90;;
46407;SDS011;32110;45.724;21.276;2023-10-19T10:17:41;4.13;;;3.08;;
46407;SDS011;32110;45.724;21.276;2023-10-19T10:22:44;6.28;;;3.08;;
46407;SDS011;32110;45.724;21.276;2023-10-19T10:25:28;4.45;;;2.67;;
46407;SDS011;32110;45.724;21.276;2023-10-19T10:27:54;4.10;;;2.60;;
46407;SDS011;32110;45.724;21.276;2023-10-19T10:30:19;4.68;;;2.80;;
46407;SDS011;32110;45.724;21.276;2023-10-19T10:32:51;7.95;;;2.95;;
46407;SDS011;32110;45.724;21.276;2023-10-19T10:38:02;5.63;;;2.83;;
46407;SDS011;32110;45.724;21.276;2023-10-19T10:40:27;6.13;;;2.80;;
46407;SDS011;32110;45.724;21.276;2023-10-19T10:43:05;4.90;;;2.85;;
46407;SDS011;32110;45.724;21.276;2023-10-19T10:45:31;9.57;;;2.88;;
46407;SDS011;32110;45.724;21.276;2023-10-19T10:47:56;4.83;;;2.60;;
46407;SDS011;32110;45.724;21.276;2023-10-19T10:50:22;5.03;;;2.85;;
46407;SDS011;32110;45.724;21.276;2023-10-19T10:52:48;3.88;;;2.65;;
46407;SDS011;32110;45.724;21.276;2023-10-19T10:55:14;8.02;;;2.80;;
46407;SDS011;32110;45.724;21.276;2023-10-19T10:57:40;5.75;;;2.78;;
46407;SDS011;32110;45.724;21.276;2023-10-19T11:03:05;6.15;;;2.90;;
46407;SDS011;32110;45.724;21.276;2023-10-19T11:05:32;5.78;;;2.70;;
46407;SDS011;32110;45.724;21.276;2023-10-19T11:08:03;6.47;;;2.92;;
46407;SDS011;32110;45.724;21.276;2023-10-19T11:10:29;4.85;;;2.70;;
46407;SDS011;32110;45.724;21.276;2023-10-19T11:13:01;9.48;;;3.08;;
46407;SDS011;32110;45.724;21.276;2023-10-19T11:15:26;6.88;;;2.92;;
46407;SDS011;32110;45.724;21.276;2023-10-19T11:17:52;8.90;;;3.15;;
46407;SDS011;32110;45.724;21.276;2023-10-19T11:20:21;4.83;;;3.33;;
46407;SDS011;32110;45.724;21.276;2023-10-19T11:22:50;4.72;;;3.00;;
46407;SDS011;32110;45.724;21.276;2023-10-19T11:27:41;4.97;;;3.00;;
46407;SDS011;32110;45.724;21.276;2023-10-19T11:30:06;4.73;;;2.90;;
46407;SDS011;32110;45.724;21.276;2023-10-19T11:32:36;4.07;;;2.70;;
46407;SDS011;32110;45.724;21.276;2023-10-19T11:35:03;3.08;;;2.60;;
46407;SDS011;32110;45.724;21.276;2023-10-19T11:37:28;6.70;;;3.03;;
46407;SDS011;32110;45.724;21.276;2023-10-19T11:39:54;8.90;;;2.65;;
46407;SDS011;32110;45.724;21.276;2023-10-19T11:42:19;3.73;;;2.57;;
46407;SDS011;32110;45.724;21.276;2023-10-19T11:44:45;4.88;;;2.78;;
46407;SDS011;32110;45.724;21.276;2023-10-19T11:47:11;4.50;;;3.00;;
46407;SDS011;32110;45.724;21.276;2023-10-19T11:49:36;7.88;;;2.92;;
46407;SDS011;32110;45.724;21.276;2023-10-19T11:52:06;3.53;;;2.70;;
46407;SDS011;32110;45.724;21.276;2023-10-19T11:56:58;4.85;;;2.45;;
46407;SDS011;32110;45.724;21.276;2023-10-19T11:59:24;7.03;;;2.72;;
46407;SDS011;32110;45.724;21.276;2023-10-19T12:01:51;4.57;;;2.47;;
46407;SDS011;32110;45.724;21.276;2023-10-19T12:04:16;4.50;;;2.65;;
46407;SDS011;32110;45.724;21.276;2023-10-19T12:06:42;7.13;;;2.70;;
46407;SDS011;32110;45.724;21.276;2023-10-19T12:09:07;5.55;;;2.75;;
46407;SDS011;32110;45.724;21.276;2023-10-19T12:11:42;4.90;;;2.50;;
46407;SDS011;32110;45.724;21.276;2023-10-19T12:14:09;8.40;;;2.85;;
46407;SDS011;32110;45.724;21.276;2023-10-19T12:16:39;6.00;;;2.55;;
46407;SDS011;32110;45.724;21.276;2023-10-19T12:19:05;6.80;;;2.90;;
46407;SDS011;32110;45.724;21.276;2023-10-19T12:21:30;7.55;;;2.78;;
46407;SDS011;32110;45.724;21.276;2023-10-19T12:23:56;4.07;;;2.50;;
46407;SDS011;32110;45.724;21.276;2023-10-19T12:26:24;3.80;;;2.90;;
46407;SDS011;32110;45.724;21.276;2023-10-19T12:28:50;4.78;;;2.90;;
46407;SDS011;32110;45.724;21.276;2023-10-19T12:31:15;4.13;;;2.80;;
46407;SDS011;32110;45.724;21.276;2023-10-19T12:33:43;5.13;;;2.92;;
46407;SDS011;32110;45.724;21.276;2023-10-19T12:36:10;5.50;;;3.17;;
46407;SDS011;32110;45.724;21.276;2023-10-19T12:38:47;5.18;;;3.83;;
46407;SDS011;32110;45.724;21.276;2023-10-19T12:41:12;6.80;;;4.57;;
46407;SDS011;32110;45.724;21.276;2023-10-19T12:43:39;7.57;;;4.32;;
46407;SDS011;32110;45.724;21.276;2023-10-19T12:46:04;8.00;;;5.22;;
46407;SDS011;32110;45.724;21.276;2023-10-19T12:48:33;7.68;;;4.65;;
46407;SDS011;32110;45.724;21.276;2023-10-19T12:51:00;7.03;;;4.30;;
46407;SDS011;32110;45.724;21.276;2023-10-19T12:53:27;5.28;;;3.50;;
46407;SDS011;32110;45.724;21.276;2023-10-19T12:55:52;5.20;;;3.47;;
46407;SDS011;32110;45.724;21.276;2023-10-19T12:58:18;6.82;;;3.60;;
46407;SDS011;32110;45.724;21.276;2023-10-19T13:00:44;8.20;;;4.18;;
46407;SDS011;32110;45.724;21.276;2023-10-19T13:03:11;8.10;;;4.20;;
46407;SDS011;32110;45.724;21.276;2023-10-19T13:05:41;6.85;;;4.10;;
46407;SDS011;32110;45.724;21.276;2023-10-19T13:08:09;5.63;;;4.03;;
46407;SDS011;32110;45.724;21.276;2023-10-19T13:10:41;8.80;;;5.07;;
46407;SDS011;32110;45.724;21.276;2023-10-19T13:13:11;8.45;;;5.47;;
46407;SDS011;32110;45.724;21.276;2023-10-19T13:15:40;8.68;;;5.65;;
46407;SDS011;32110;45.724;21.276;2023-10-19T13:18:08;10.65;;;5.50;;
46407;SDS011;32110;45.724;21.276;2023-10-19T13:20:35;7.57;;;4.65;;
46407;SDS011;32110;45.724;21.276;2023-10-19T13:23:08;8.63;;;4.78;;
46407;SDS011;32110;45.724;21.276;2023-10-19T13:25:41;6.05;;;3.95;;
46407;SDS011;32110;45.724;21.276;2023-10-19T13:28:10;5.93;;;3.50;;
46407;SDS011;32110;45.724;21.276;2023-10-19T13:30:38;7.45;;;2.97;;
46407;SDS011;32110;45.724;21.276;2023-10-19T13:33:07;4.97;;;3.10;;
46407;SDS011;32110;45.724;21.276;2023-10-19T13:35:35;4.50;;;3.00;;
46407;SDS011;32110;45.724;21.276;2023-10-19T13:38:02;5.35;;;2.90;;
46407;SDS011;32110;45.724;21.276;2023-10-19T13:40:29;6.43;;;3.00;;
46407;SDS011;32110;45.724;21.276;2023-10-19T13:42:58;8.45;;;3.35;;
46407;SDS011;32110;45.724;21.276;2023-10-19T13:45:24;6.97;;;2.83;;
46407;SDS011;32110;45.724;21.276;2023-10-19T13:47:50;5.38;;;2.78;;
46407;SDS011;32110;45.724;21.276;2023-10-19T13:52:58;7.15;;;3.10;;
46407;SDS011;32110;45.724;21.276;2023-10-19T13:55:28;6.20;;;3.00;;
46407;SDS011;32110;45.724;21.276;2023-10-19T13:57:55;4.55;;;3.05;;
46407;SDS011;32110;45.724;21.276;2023-10-19T14:00:24;3.70;;;2.60;;
46407;SDS011;32110;45.724;21.276;2023-10-19T14:03:04;3.63;;;2.50;;
46407;SDS011;32110;45.724;21.276;2023-10-19T14:05:35;4.82;;;2.40;;
46407;SDS011;32110;45.724;21.276;2023-10-19T14:08:01;4.60;;;2.72;;
46407;SDS011;32110;45.724;21.276;2023-10-19T14:10:28;6.35;;;2.97;;
46407;SDS011;32110;45.724;21.276;2023-10-19T14:12:54;4.45;;;2.63;;
46407;SDS011;32110;45.724;21.276;2023-10-19T14:15:20;6.68;;;2.97;;
46407;SDS011;32110;45.724;21.276;2023-10-19T14:17:46;4.88;;;2.65;;
46407;SDS011;32110;45.724;21.276;2023-10-19T14:20:13;4.78;;;2.70;;
46407;SDS011;32110;45.724;21.276;2023-10-19T14:22:40;3.42;;;2.80;;
46407;SDS011;32110;45.724;21.276;2023-10-19T14:25:11;7.28;;;2.90;;
46407;SDS011;32110;45.724;21.276;2023-10-19T14:27:38;5.65;;;2.70;;
46407;SDS011;32110;45.724;21.276;2023-10-19T14:30:11;3.53;;;2.88;;
46407;SDS011;32110;45.724;21.276;2023-10-19T14:32:40;4.90;;;2.75;;
46407;SDS011;32110;45.724;21.276;2023-10-19T14:35:07;4.07;;;2.88;;
46407;SDS011;32110;45.724;21.276;2023-10-19T14:37:43;6.07;;;3.03;;
46407;SDS011;32110;45.724;21.276;2023-10-19T14:40:11;10.02;;;2.85;;
46407;SDS011;32110;45.724;21.276;2023-10-19T14:42:39;7.28;;;3.10;;
46407;SDS011;32110;45.724;21.276;2023-10-19T14:45:08;4.18;;;3.05;;